createdAt,value
2022-09-23T00:01:21.739Z,7.02
2022-09-23T00:03:49.446Z,7.01
2022-09-23T00:06:22.486Z,6.93
2022-09-23T00:08:50.898Z,6.94
2022-09-23T00:11:20.132Z,6.96
2022-09-23T00:13:49.794Z,6.89
2022-09-23T00:16:20.688Z,6.82
2022-09-23T00:18:50.278Z,6.79
2022-09-23T00:21:19.805Z,6.79
2022-09-23T00:23:47.166Z,6.81
2022-09-23T00:26:16.630Z,6.81
2022-09-23T00:28:44.869Z,6.84
2022-09-23T00:31:15.869Z,6.85
2022-09-23T00:33:43.376Z,6.77
2022-09-23T00:36:15.522Z,6.82
2022-09-23T00:38:43.668Z,6.84
2022-09-23T00:41:11.842Z,6.86
2022-09-23T00:43:53.119Z,6.85
2022-09-23T00:46:43.598Z,6.79
2022-09-23T00:49:19.140Z,6.82
2022-09-23T00:51:54.421Z,6.76
2022-09-23T00:54:24.403Z,6.78
2022-09-23T00:56:52.043Z,6.72
2022-09-23T00:59:20.799Z,6.67
2022-09-23T01:01:50.120Z,6.66
2022-09-23T01:04:17.505Z,6.69
2022-09-23T01:06:45.300Z,6.66
2022-09-23T01:09:12.675Z,6.63
2022-09-23T01:11:51.585Z,6.59
2022-09-23T01:14:40.443Z,6.59
2022-09-23T01:17:24.568Z,6.59
2022-09-23T01:20:24.361Z,6.58
2022-09-23T01:23:18.197Z,6.59
2022-09-23T01:25:47.107Z,6.60
2022-09-23T01:28:14.548Z,6.59
2022-09-23T01:30:51.073Z,6.55
2022-09-23T01:33:38.219Z,6.53
2022-09-23T01:36:11.709Z,6.44
2022-09-23T01:39:15.056Z,6.42
2022-09-23T01:41:49.633Z,6.44
2022-09-23T01:44:31.435Z,6.42
2022-09-23T01:47:10.958Z,6.40
2022-09-23T01:49:50.988Z,6.40
2022-09-23T01:52:43.390Z,6.37
2022-09-23T01:55:31.806Z,6.31
2022-09-23T01:58:10.316Z,6.26
2022-09-23T02:00:44.368Z,6.23
2022-09-23T02:03:21.003Z,6.16
2022-09-23T02:05:53.465Z,6.16
2022-09-23T02:08:26.371Z,6.18
2022-09-23T02:10:58.854Z,6.21
2022-09-23T02:13:48.492Z,6.22
2022-09-23T02:16:35.975Z,6.19
2022-09-23T02:19:27.666Z,6.14
2022-09-23T02:22:09.340Z,6.12
2022-09-23T02:24:39.610Z,6.11
2022-09-23T02:28:08.374Z,6.07
2022-09-23T02:30:47.048Z,6.09
2022-09-23T02:33:46.155Z,6.13
2022-09-23T02:36:38.171Z,6.07
2022-09-23T02:39:11.435Z,6.06
2022-09-23T02:42:07.682Z,6.06
2022-09-23T02:44:36.132Z,6.05
2022-09-23T02:47:03.894Z,6.02
2022-09-23T02:49:33.795Z,5.99
2022-09-23T02:52:04.677Z,6.01
2022-09-23T02:54:36.066Z,5.97
2022-09-23T02:57:06.707Z,6.00
2022-09-23T02:59:35.854Z,5.94
2022-09-23T03:02:34.503Z,5.91
2022-09-23T03:05:11.277Z,5.90
2022-09-23T03:08:22.779Z,5.86
2022-09-23T03:11:12.989Z,5.84
2022-09-23T03:14:06.650Z,5.82
2022-09-23T03:16:53.661Z,5.79
2022-09-23T03:19:28.501Z,5.78
2022-09-23T03:22:17.431Z,5.70
2022-09-23T03:24:53.207Z,5.77
2022-09-23T03:27:27.407Z,5.81
2022-09-23T03:29:56.627Z,5.79
2022-09-23T03:32:28.130Z,5.64
2022-09-23T03:34:59.157Z,5.75
2022-09-23T03:37:47.128Z,5.71
2022-09-23T03:40:43.710Z,5.68
2022-09-23T03:43:14.401Z,5.69
2022-09-23T03:45:42.583Z,5.62
2022-09-23T03:48:09.777Z,5.59
2022-09-23T03:50:37.037Z,5.54
2022-09-23T03:53:04.203Z,5.45
2022-09-23T03:55:32.209Z,5.59
2022-09-23T03:58:00.191Z,5.45
2022-09-23T04:00:27.701Z,5.50
2022-09-23T04:02:54.609Z,5.45
2022-09-23T04:05:21.563Z,5.40
2022-09-23T04:07:49.158Z,5.41
2022-09-23T04:10:16.557Z,5.43
2022-09-23T04:12:44.583Z,5.35
2022-09-23T04:15:11.955Z,5.34
2022-09-23T04:17:38.948Z,5.34
2022-09-23T04:20:06.890Z,5.17
2022-09-23T04:22:35.031Z,5.17
2022-09-23T04:25:02.298Z,5.00
2022-09-23T04:27:30.032Z,5.26
2022-09-23T04:29:58.996Z,5.22
2022-09-23T04:32:26.005Z,5.12
2022-09-23T04:34:52.974Z,5.17
2022-09-23T04:37:19.882Z,5.20
2022-09-23T04:39:46.785Z,5.18
2022-09-23T04:42:14.031Z,5.22
2022-09-23T04:44:40.994Z,5.25
2022-09-23T04:47:08.265Z,5.08
2022-09-23T04:49:35.221Z,5.23
2022-09-23T04:52:02.731Z,5.27
2022-09-23T04:54:29.708Z,5.31
2022-09-23T04:56:57.092Z,5.32
2022-09-23T04:59:24.337Z,5.22
2022-09-23T05:01:51.999Z,5.19
2022-09-23T05:04:19.211Z,5.28
2022-09-23T05:06:46.339Z,5.37
2022-09-23T05:09:18.397Z,5.34
2022-09-23T05:11:46.182Z,5.21
2022-09-23T05:14:13.278Z,5.40
2022-09-23T05:16:40.798Z,5.45
2022-09-23T05:19:07.957Z,5.38
2022-09-23T05:21:38.071Z,5.37
2022-09-23T05:24:05.330Z,5.20
2022-09-23T05:26:33.231Z,5.25
2022-09-23T05:29:00.888Z,5.35
2022-09-23T05:31:30.289Z,5.41
2022-09-23T05:34:04.682Z,5.30
2022-09-23T05:36:38.329Z,5.45
2022-09-23T05:39:07.957Z,5.33
2022-09-23T05:41:35.896Z,5.46
2022-09-23T05:44:03.088Z,5.26
2022-09-23T05:46:32.042Z,5.50
2022-09-23T05:49:02.851Z,5.58
2022-09-23T05:51:32.447Z,5.59
2022-09-23T05:54:02.934Z,5.55
2022-09-23T05:56:31.931Z,5.66
2022-09-23T05:59:01.373Z,5.55
2022-09-23T06:01:33.727Z,5.77
2022-09-23T06:04:04.255Z,5.77
2022-09-23T06:06:41.486Z,5.83
2022-09-23T06:09:13.536Z,5.83
2022-09-23T06:11:41.669Z,5.97
2022-09-23T06:14:13.798Z,5.90
2022-09-23T06:16:40.950Z,6.06
2022-09-23T06:19:07.836Z,6.16
2022-09-23T06:21:38.575Z,6.23
2022-09-23T06:24:07.237Z,6.20
2022-09-23T06:26:37.542Z,6.22
2022-09-23T06:29:11.706Z,6.35
2022-09-23T06:31:40.695Z,6.16
2022-09-23T06:34:13.525Z,6.46
2022-09-23T06:36:46.447Z,6.50
2022-09-23T06:39:17.065Z,6.56
2022-09-23T06:41:47.002Z,6.69
2022-09-23T06:44:15.175Z,6.78
2022-09-23T06:46:42.793Z,6.71
2022-09-23T06:49:10.623Z,6.91
2022-09-23T06:51:37.565Z,7.10
2022-09-23T06:54:04.718Z,7.08
2022-09-23T06:56:37.784Z,7.24
2022-09-23T06:59:09.572Z,7.43
2022-09-23T07:01:36.700Z,7.51
2022-09-23T07:04:03.864Z,7.63
2022-09-23T07:06:30.883Z,7.73
2022-09-23T07:08:57.789Z,7.89
2022-09-23T07:11:25.807Z,8.00
2022-09-23T07:13:52.862Z,8.20
2022-09-23T07:16:21.078Z,8.30
2022-09-23T07:18:48.118Z,8.40
2022-09-23T07:21:18.338Z,8.46
2022-09-23T07:23:48.341Z,8.64
2022-09-23T07:26:18.020Z,8.79
2022-09-23T07:28:47.360Z,8.86
2022-09-23T07:31:31.504Z,9.05
2022-09-23T07:34:02.653Z,9.11
2022-09-23T07:36:32.682Z,9.29
2022-09-23T07:39:02.170Z,9.32
2022-09-23T07:41:32.414Z,9.63
2022-09-23T07:44:01.074Z,9.72
2022-09-23T07:46:31.964Z,9.84
2022-09-23T07:49:01.867Z,9.86
2022-09-23T07:51:38.707Z,10.06
2022-09-23T07:54:11.082Z,10.26
2022-09-23T07:56:39.205Z,10.36
2022-09-23T07:59:10.890Z,10.33
2022-09-23T08:01:42.408Z,10.52
2022-09-23T08:04:18.987Z,10.69
2022-09-23T08:06:54.022Z,10.68
2022-09-23T08:09:25.533Z,10.88
2022-09-23T08:11:52.628Z,11.06
2022-09-23T08:14:22.201Z,11.13
2022-09-23T08:16:50.832Z,11.32
2022-09-23T08:19:18.424Z,11.43
2022-09-23T08:21:49.849Z,11.53
2022-09-23T08:24:20.799Z,11.68
2022-09-23T08:26:49.075Z,11.76
2022-09-23T08:29:18.607Z,11.89
2022-09-23T08:31:46.029Z,12.05
2022-09-23T08:34:13.645Z,12.04
2022-09-23T08:36:40.604Z,12.25
2022-09-23T08:39:08.222Z,12.46
2022-09-23T08:41:59.043Z,12.61
2022-09-23T08:44:53.687Z,12.85
2022-09-23T08:47:51.171Z,13.14
2022-09-23T08:50:21.977Z,13.46
2022-09-23T08:52:58.880Z,13.83
2022-09-23T08:55:43.563Z,14.70
2022-09-23T08:58:34.270Z,15.86
2022-09-23T09:01:17.976Z,16.94
2022-09-23T09:03:56.079Z,17.98
2022-09-23T09:06:53.648Z,18.70
2022-09-23T09:09:33.813Z,18.94
2022-09-23T09:12:11.087Z,19.63
2022-09-23T09:14:57.490Z,20.57
2022-09-23T09:17:36.845Z,21.10
2022-09-23T09:20:19.312Z,21.67
2022-09-23T09:22:55.978Z,21.87
2022-09-23T09:25:45.198Z,22.45
2022-09-23T09:28:16.319Z,22.88
2022-09-23T09:30:48.603Z,23.22
2022-09-23T09:33:19.151Z,23.45
2022-09-23T09:36:04.017Z,23.88
2022-09-23T09:38:31.798Z,24.25
2022-09-23T09:41:11.515Z,23.64
2022-09-23T09:43:44.935Z,24.13
2022-09-23T09:46:37.421Z,24.54
2022-09-23T09:49:23.209Z,25.26
2022-09-23T09:52:14.468Z,25.25
2022-09-23T09:54:41.804Z,25.71
2022-09-23T09:57:33.566Z,24.96
2022-09-23T10:00:26.496Z,25.02
2022-09-23T10:03:01.494Z,24.58
2022-09-23T10:05:34.377Z,24.72
2022-09-23T10:08:32.317Z,24.19
2022-09-23T10:11:04.129Z,24.63
2022-09-23T10:13:32.208Z,23.93
2022-09-23T10:16:03.836Z,23.26
2022-09-23T10:18:34.487Z,21.88
2022-09-23T10:21:33.176Z,20.64
2022-09-23T10:24:03.060Z,19.87
2022-09-23T10:26:34.395Z,19.49
2022-09-23T10:29:23.117Z,19.25
2022-09-23T10:32:10.649Z,19.07
2022-09-23T10:34:46.726Z,18.99
2022-09-23T10:37:41.334Z,19.02
2022-09-23T10:40:57.175Z,18.82
2022-09-23T10:44:15.248Z,19.18
2022-09-23T10:47:14.522Z,18.98
2022-09-23T10:49:54.063Z,20.46
2022-09-23T10:52:53.299Z,22.18
2022-09-23T10:55:37.158Z,23.51
2022-09-23T10:58:41.786Z,24.82
2022-09-23T11:01:47.590Z,25.63
2022-09-23T11:04:42.433Z,24.69
2022-09-23T11:07:27.776Z,24.28
2022-09-23T11:10:45.504Z,25.52
2022-09-23T11:13:32.169Z,26.92
2022-09-23T11:16:27.488Z,27.07
2022-09-23T11:19:01.988Z,26.92
2022-09-23T11:21:51.694Z,25.80
2022-09-23T11:24:50.205Z,25.44
2022-09-23T11:27:43.957Z,24.63
2022-09-23T11:30:13.227Z,23.52
2022-09-23T11:32:52.255Z,22.60
2022-09-23T11:35:52.522Z,21.68
2022-09-23T11:38:31.044Z,21.10
2022-09-23T11:41:03.980Z,20.40
2022-09-23T11:43:37.001Z,20.15
2022-09-23T11:46:26.085Z,19.90
2022-09-23T11:49:15.858Z,19.48
2022-09-23T11:52:12.800Z,19.22
2022-09-23T11:55:07.445Z,19.15
2022-09-23T11:58:02.217Z,18.66
2022-09-23T12:00:36.336Z,18.63
2022-09-23T12:03:06.859Z,18.69
2022-09-23T12:05:58.530Z,18.61
2022-09-23T12:08:37.230Z,18.52
2022-09-23T12:11:25.482Z,18.33
2022-09-23T12:14:14.443Z,18.18
2022-09-23T12:17:23.401Z,18.16
2022-09-23T12:19:55.435Z,18.56
2022-09-23T12:22:53.092Z,19.01
2022-09-23T12:25:40.326Z,19.32
2022-09-23T12:28:18.774Z,19.41
2022-09-23T12:30:48.099Z,19.20
2022-09-23T12:33:27.664Z,19.02
2022-09-23T12:36:12.264Z,18.89
2022-09-23T12:38:55.703Z,18.84
2022-09-23T12:41:38.076Z,18.64
2022-09-23T12:44:12.415Z,18.44
2022-09-23T12:46:45.144Z,18.44
2022-09-23T12:49:36.409Z,18.42
2022-09-23T12:52:12.656Z,18.33
2022-09-23T12:54:41.639Z,18.29
2022-09-23T12:57:13.008Z,18.34
2022-09-23T13:00:00.255Z,18.40
2022-09-23T13:02:32.182Z,18.36
2022-09-23T13:05:35.477Z,18.46
2022-09-23T13:08:11.965Z,18.57
2022-09-23T13:10:44.567Z,18.45
2022-09-23T13:13:35.318Z,18.34
2022-09-23T13:16:30.662Z,18.27
2022-09-23T13:19:00.066Z,18.20
2022-09-23T13:21:46.162Z,18.16
2022-09-23T13:24:13.514Z,18.29
2022-09-23T13:27:08.193Z,18.36
2022-09-23T13:29:47.047Z,18.26
2022-09-23T13:32:20.152Z,18.50
2022-09-23T13:34:56.509Z,18.58
2022-09-23T13:37:30.025Z,18.69
2022-09-23T13:40:18.605Z,18.48
2022-09-23T13:42:52.953Z,18.34
2022-09-23T13:45:22.867Z,18.22
2022-09-23T13:47:55.650Z,18.17
2022-09-23T13:50:24.678Z,18.01
2022-09-23T13:52:55.199Z,17.84
2022-09-23T13:55:25.652Z,17.77
2022-09-23T13:58:07.700Z,17.75
2022-09-23T14:00:37.358Z,17.66
2022-09-23T14:03:36.174Z,17.62
2022-09-23T14:06:16.254Z,17.62
2022-09-23T14:08:49.788Z,17.58
2022-09-23T14:11:19.307Z,17.68
2022-09-23T14:13:50.833Z,17.76
2022-09-23T14:16:19.847Z,17.79
2022-09-23T14:18:52.128Z,17.72
2022-09-23T14:21:37.451Z,17.68
2022-09-23T14:24:10.900Z,17.69
2022-09-23T14:26:39.697Z,17.51
2022-09-23T14:29:18.713Z,17.55
2022-09-23T14:31:58.487Z,17.54
2022-09-23T14:34:48.385Z,17.44
2022-09-23T14:37:58.829Z,17.52
2022-09-23T14:40:28.438Z,17.45
2022-09-23T14:43:21.953Z,17.40
2022-09-23T14:45:53.490Z,17.31
2022-09-23T14:48:35.004Z,17.31
2022-09-23T14:51:06.279Z,17.36
2022-09-23T14:53:43.108Z,17.43
2022-09-23T14:56:18.484Z,17.44
2022-09-23T14:58:52.319Z,17.48
2022-09-23T15:01:37.383Z,17.43
2022-09-23T15:04:18.263Z,17.43
2022-09-23T15:06:55.390Z,17.51
2022-09-23T15:09:29.765Z,17.38
2022-09-23T15:12:00.535Z,17.38
2022-09-23T15:14:39.102Z,17.43
2022-09-23T15:17:16.413Z,17.52
2022-09-23T15:19:44.101Z,17.47
2022-09-23T15:22:12.836Z,17.43
2022-09-23T15:24:45.249Z,17.34
2022-09-23T15:27:31.724Z,17.32
2022-09-23T15:30:16.951Z,17.22
2022-09-23T15:32:45.608Z,17.01
2022-09-23T15:35:19.063Z,16.90
2022-09-23T15:37:49.549Z,16.74
2022-09-23T15:40:19.433Z,16.60
2022-09-23T15:42:51.689Z,16.58
2022-09-23T15:45:22.262Z,16.53
2022-09-23T15:47:50.823Z,16.47
2022-09-23T15:50:18.549Z,16.39
2022-09-23T15:52:46.051Z,16.31
2022-09-23T15:55:18.514Z,16.20
2022-09-23T15:57:45.887Z,16.14
2022-09-23T16:00:13.632Z,16.09
2022-09-23T16:02:43.585Z,16.03
2022-09-23T16:05:18.391Z,15.96
2022-09-23T16:07:48.120Z,15.92
2022-09-23T16:10:16.002Z,15.80
2022-09-23T16:12:43.677Z,15.76
2022-09-23T16:15:20.708Z,15.74
2022-09-23T16:17:48.251Z,15.72
2022-09-23T16:20:17.910Z,15.68
2022-09-23T16:23:00.276Z,15.63
2022-09-23T16:25:30.283Z,15.52
2022-09-23T16:27:58.407Z,15.51
2022-09-23T16:30:31.698Z,15.49
2022-09-23T16:33:00.797Z,15.42
2022-09-23T16:35:31.271Z,15.41
2022-09-23T16:37:59.592Z,15.35
2022-09-23T16:40:27.381Z,15.31
2022-09-23T16:42:55.909Z,15.27
2022-09-23T16:45:24.156Z,15.20
2022-09-23T16:47:52.691Z,15.12
2022-09-23T16:50:25.028Z,15.04
2022-09-23T16:52:56.243Z,14.97
2022-09-23T16:55:27.360Z,14.93
2022-09-23T16:57:55.619Z,14.85
2022-09-23T17:00:42.587Z,14.77
2022-09-23T17:03:31.207Z,14.70
2022-09-23T17:06:00.669Z,14.62
2022-09-23T17:08:30.102Z,14.53
2022-09-23T17:10:59.168Z,14.47
2022-09-23T17:13:28.300Z,14.42
2022-09-23T17:15:56.102Z,14.37
2022-09-23T17:18:23.535Z,14.25
2022-09-23T17:21:06.472Z,14.14
2022-09-23T17:23:35.947Z,14.10
2022-09-23T17:26:05.378Z,14.04
2022-09-23T17:28:32.880Z,13.99
2022-09-23T17:31:02.322Z,13.95
2022-09-23T17:33:31.692Z,13.87
2022-09-23T17:36:00.218Z,13.83
2022-09-23T17:38:29.477Z,13.82
2022-09-23T17:40:59.304Z,13.78
2022-09-23T17:43:27.124Z,13.74
2022-09-23T17:45:56.468Z,13.68
2022-09-23T17:48:25.627Z,13.61
2022-09-23T17:51:04.989Z,13.59
2022-09-23T17:53:34.969Z,13.59
2022-09-23T17:56:29.970Z,13.56
2022-09-23T17:59:01.743Z,13.54
2022-09-23T18:01:29.930Z,13.48
2022-09-23T18:03:59.645Z,13.42
2022-09-23T18:06:31.606Z,13.38
2022-09-23T18:09:06.499Z,13.32
2022-09-23T18:11:37.016Z,13.26
2022-09-23T18:14:18.684Z,13.17
2022-09-23T18:16:48.388Z,13.12
2022-09-23T18:19:17.956Z,13.06
2022-09-23T18:21:49.447Z,13.03
2022-09-23T18:24:34.015Z,13.00
2022-09-23T18:27:02.235Z,12.96
2022-09-23T18:29:29.674Z,12.91
2022-09-23T18:31:57.160Z,12.85
2022-09-23T18:34:25.269Z,12.80
2022-09-23T18:36:56.129Z,12.78
2022-09-23T18:39:23.786Z,12.75
2022-09-23T18:41:51.121Z,12.73
2022-09-23T18:44:19.049Z,12.68
2022-09-23T18:46:46.497Z,12.65
2022-09-23T18:49:32.468Z,12.60
2022-09-23T18:52:00.239Z,12.54
2022-09-23T18:54:28.844Z,12.52
2022-09-23T18:56:56.928Z,12.47
2022-09-23T18:59:27.811Z,12.44
2022-09-23T19:01:55.996Z,12.42
2022-09-23T19:04:25.211Z,12.48
2022-09-23T19:06:54.801Z,12.45
2022-09-23T19:09:22.121Z,12.41
2022-09-23T19:11:53.380Z,12.31
2022-09-23T19:14:21.268Z,12.21
2022-09-23T19:16:51.907Z,12.11
2022-09-23T19:19:19.397Z,12.06
2022-09-23T19:21:47.013Z,12.01
2022-09-23T19:24:20.252Z,12.01
2022-09-23T19:26:48.597Z,12.00
2022-09-23T19:29:19.484Z,11.97
2022-09-23T19:31:48.468Z,11.92
2022-09-23T19:34:24.781Z,11.87
2022-09-23T19:36:52.938Z,11.86
2022-09-23T19:39:22.857Z,11.78
2022-09-23T19:41:52.280Z,11.73
2022-09-23T19:44:21.434Z,11.71
2022-09-23T19:46:55.076Z,11.71
2022-09-23T19:49:24.979Z,11.68
2022-09-23T19:51:55.311Z,11.67
2022-09-23T19:54:23.573Z,11.65
2022-09-23T19:56:51.315Z,11.55
2022-09-23T19:59:19.497Z,11.48
2022-09-23T20:01:48.625Z,11.46
2022-09-23T20:04:16.977Z,11.44
2022-09-23T20:06:45.924Z,11.43
2022-09-23T20:09:13.538Z,11.44
2022-09-23T20:11:43.085Z,11.44
2022-09-23T20:14:11.835Z,11.41
2022-09-23T20:16:39.177Z,11.36
2022-09-23T20:19:06.713Z,11.32
2022-09-23T20:21:35.306Z,11.21
2022-09-23T20:24:05.633Z,11.25
2022-09-23T20:26:51.954Z,11.27
2022-09-23T20:29:19.338Z,11.23
2022-09-23T20:31:46.727Z,11.16
2022-09-23T20:34:14.089Z,11.15
2022-09-23T20:36:42.251Z,11.10
2022-09-23T20:39:10.255Z,11.05
2022-09-23T20:41:39.270Z,11.02
2022-09-23T20:44:12.442Z,10.97
2022-09-23T20:46:44.106Z,10.94
2022-09-23T20:49:16.353Z,10.86
2022-09-23T20:51:44.021Z,10.82
2022-09-23T20:54:12.203Z,10.77
2022-09-23T20:56:39.721Z,10.74
2022-09-23T20:59:07.278Z,10.66
2022-09-23T21:01:36.517Z,10.63
2022-09-23T21:04:05.768Z,10.58
2022-09-23T21:06:36.429Z,10.60
2022-09-23T21:09:05.283Z,10.64
2022-09-23T21:11:33.978Z,10.63
2022-09-23T21:14:02.227Z,10.58
2022-09-23T21:16:30.339Z,10.57
2022-09-23T21:18:58.874Z,10.51
2022-09-23T21:21:26.570Z,10.48
2022-09-23T21:23:53.915Z,10.49
2022-09-23T21:26:25.855Z,10.43
2022-09-23T21:28:57.129Z,10.37
2022-09-23T21:31:27.518Z,10.31
2022-09-23T21:34:14.500Z,10.29
2022-09-23T21:36:47.822Z,10.22
2022-09-23T21:39:15.222Z,10.22
2022-09-23T21:41:42.612Z,10.24
2022-09-23T21:44:10.194Z,10.24
2022-09-23T21:46:37.608Z,10.29
2022-09-23T21:49:05.358Z,10.33
2022-09-23T21:51:37.525Z,10.36
2022-09-23T21:54:05.682Z,10.33
2022-09-23T21:56:35.347Z,10.37
2022-09-23T21:59:03.923Z,10.39
2022-09-23T22:01:35.210Z,10.43
2022-09-23T22:04:07.878Z,10.43
2022-09-23T22:06:38.129Z,10.46
2022-09-23T22:09:08.939Z,10.47
2022-09-23T22:11:56.901Z,10.47
2022-09-23T22:14:26.980Z,10.48
2022-09-23T22:16:57.471Z,10.50
2022-09-23T22:19:35.552Z,10.52
2022-09-23T22:22:08.057Z,10.49
2022-09-23T22:24:35.396Z,10.44
2022-09-23T22:27:02.743Z,10.50
2022-09-23T22:29:48.990Z,10.57
2022-09-23T22:32:34.886Z,10.59
2022-09-23T22:35:02.484Z,10.63
2022-09-23T22:37:34.221Z,10.66
2022-09-23T22:40:07.293Z,10.65
2022-09-23T22:42:36.449Z,10.60
2022-09-23T22:45:05.792Z,10.60
2022-09-23T22:47:38.203Z,10.60
2022-09-23T22:50:09.953Z,10.62
2022-09-23T22:52:37.801Z,10.61
2022-09-23T22:55:07.977Z,10.57
2022-09-23T22:57:36.464Z,10.55
2022-09-23T23:00:08.181Z,10.54
2022-09-23T23:02:36.723Z,10.48
2022-09-23T23:05:04.283Z,10.52
2022-09-23T23:07:32.115Z,10.56
2022-09-23T23:09:59.400Z,10.54
2022-09-23T23:12:26.740Z,10.59
2022-09-23T23:14:54.818Z,10.63
2022-09-23T23:17:22.106Z,10.64
2022-09-23T23:19:50.789Z,10.62
2022-09-23T23:22:18.267Z,10.62
2022-09-23T23:24:45.579Z,10.62
2022-09-23T23:27:12.911Z,10.63
2022-09-23T23:29:40.277Z,10.57
2022-09-23T23:32:09.622Z,10.52
2022-09-23T23:34:36.947Z,10.43
2022-09-23T23:37:04.425Z,10.37
2022-09-23T23:39:33.639Z,10.39
2022-09-23T23:42:00.965Z,10.40
2022-09-23T23:44:31.072Z,10.44
2022-09-23T23:46:58.523Z,10.44
2022-09-23T23:49:26.063Z,10.49
2022-09-23T23:51:53.659Z,10.51
2022-09-23T23:54:21.085Z,10.51
2022-09-23T23:56:48.756Z,10.49
2022-09-23T23:59:16.282Z,10.47
